Time;durP1;ratioP1;P1;durP2;ratioP2;P2;SDS_P1;SDS_P2;PMS_P1;PMS_P2;Temp;Humidity;BMP_temperature;BMP_pressure;BME280_temperature;BME280_humidity;BME280_pressure;Samples;Min_cycle;Max_cycle;Signal;HPM_P1;HPM_P2
2021/11/14 00:00:00;;;;;;;9.70;8.77;;;;;;;14.99;52.28;95257.94;4991845;28;20031;-75
2021/11/14 00:02:26;;;;;;;10.52;8.70;;;;;;;14.94;52.67;95264.28;4988654;28;20022;-76
2021/11/14 00:04:51;;;;;;;9.60;8.63;;;;;;;14.93;52.45;95261.94;4974555;28;20338;-77
2021/11/14 00:07:17;;;;;;;8.15;7.40;;;;;;;14.95;52.54;95257.06;4992098;28;20033;-76
2021/11/14 00:09:44;;;;;;;9.18;8.20;;;;;;;14.96;52.30;95256.72;4993356;28;20033;-75
2021/11/14 00:12:09;;;;;;;8.02;7.22;;;;;;;15.01;52.74;95253.06;4993630;28;20022;-75
2021/11/14 00:14:35;;;;;;;8.18;7.47;;;;;;;15.01;52.51;95253.84;4992978;28;20029;-76
2021/11/14 00:17:00;;;;;;;8.73;7.93;;;;;;;15.01;52.46;95248.47;4987957;28;20499;-75
2021/11/14 00:19:26;;;;;;;12.30;10.35;;;;;;;15.03;52.53;95248.91;4977219;28;20026;-77
2021/11/14 00:21:51;;;;;;;9.15;8.45;;;;;;;15.07;52.30;95252.50;4973780;28;20108;-76
2021/11/14 00:24:17;;;;;;;12.55;11.25;;;;;;;15.04;52.34;95245.13;4973666;28;20053;-76
2021/11/14 00:26:43;;;;;;;14.00;11.57;;;;;;;15.02;52.64;95254.63;4974138;28;20027;-76
2021/11/14 00:29:09;;;;;;;14.80;10.73;;;;;;;14.94;52.35;95237.50;4972761;28;20019;-76
2021/11/14 00:31:36;;;;;;;13.85;12.45;;;;;;;14.92;52.71;95237.06;4978166;28;20035;-75
2021/11/14 00:34:05;;;;;;;9.88;8.98;;;;;;;15.01;52.41;95248.47;4988812;28;20081;-74
2021/11/14 00:36:32;;;;;;;18.90;13.60;;;;;;;15.02;52.25;95244.69;4984823;28;20118;-77
2021/11/14 00:38:58;;;;;;;11.05;9.80;;;;;;;15.01;52.18;95243.13;4992539;28;20101;-76
2021/11/14 00:41:24;;;;;;;12.82;11.57;;;;;;;15.02;52.66;95247.38;4993082;28;20562;-77
2021/11/14 00:43:51;;;;;;;10.65;9.60;;;;;;;15.02;52.50;95252.72;4992709;28;20365;-77
2021/11/14 00:46:17;;;;;;;12.05;10.73;;;;;;;14.97;52.74;95254.81;4998992;28;20032;-76
2021/11/14 00:48:43;;;;;;;12.80;11.45;;;;;;;15.01;52.52;95259.19;4976916;28;20101;-77
2021/11/14 00:51:10;;;;;;;13.23;11.73;;;;;;;14.99;52.83;95256.03;4981440;28;20030;-76
2021/11/14 00:53:36;;;;;;;15.38;13.15;;;;;;;15.04;52.71;95255.06;4992624;28;20046;-76
2021/11/14 00:56:01;;;;;;;13.75;12.40;;;;;;;15.06;52.55;95253.63;4992781;28;20389;-75
2021/11/14 00:58:27;;;;;;;11.85;10.73;;;;;;;15.08;52.37;95264.00;4992510;28;20106;-77
2021/11/14 01:00:54;;;;;;;16.17;14.43;;;;;;;15.14;52.49;95265.38;4991850;28;20081;-75
2021/11/14 01:03:20;;;;;;;12.50;11.27;;;;;;;15.16;52.59;95268.53;4977305;28;20019;-76
2021/11/14 01:05:46;;;;;;;11.35;10.20;;;;;;;15.17;52.21;95266.63;4973142;28;20444;-77
2021/11/14 01:08:12;;;;;;;10.90;9.90;;;;;;;15.18;52.14;95273.53;4972758;28;20023;-76
2021/11/14 01:10:43;;;;;;;10.98;9.88;;;;;;;15.18;52.02;95260.16;4972937;28;20053;-76
2021/11/14 01:13:09;;;;;;;15.98;12.85;;;;;;;15.25;52.07;95269.22;4972553;28;20509;-76
2021/11/14 01:15:35;;;;;;;10.90;9.90;;;;;;;15.27;52.15;95274.25;4976355;28;20039;-76
2021/11/14 01:18:01;;;;;;;10.65;9.38;;;;;;;15.35;52.02;95262.63;4987447;28;20018;-76
2021/11/14 01:20:33;;;;;;;11.73;10.55;;;;;;;15.38;51.94;95270.03;4992002;28;20475;-78
2021/11/14 01:23:00;;;;;;;15.65;14.13;;;;;;;15.34;52.00;95271.81;4992198;28;20022;-76
2021/11/14 01:25:26;;;;;;;13.57;12.23;;;;;;;15.30;51.83;95266.34;5007009;28;20042;-75
2021/11/14 01:27:51;;;;;;;12.93;11.60;;;;;;;15.33;51.81;95264.88;4991864;28;20027;-76
2021/11/14 01:30:24;;;;;;;15.27;12.98;;;;;;;15.33;51.86;95268.34;4991405;28;20029;-75
2021/11/14 01:32:51;;;;;;;14.02;12.55;;;;;;;15.38;51.71;95267.34;4980666;28;20476;-75
2021/11/14 01:35:17;;;;;;;15.57;13.95;;;;;;;15.44;51.71;95273.28;4972213;28;20023;-75
2021/11/14 01:37:46;;;;;;;11.38;10.30;;;;;;;15.40;51.47;95269.69;4972644;28;20034;-75
2021/11/14 01:40:16;;;;;;;9.95;8.95;;;;;;;15.46;51.32;95271.84;4971784;28;20027;-77
2021/11/14 01:42:41;;;;;;;10.50;9.15;;;;;;;15.41;51.60;95264.03;4972416;28;20497;-75
2021/11/14 01:45:07;;;;;;;10.45;9.38;;;;;;;15.50;51.33;95263.91;4972492;28;20027;-76
2021/11/14 01:47:33;;;;;;;9.32;8.52;;;;;;;15.56;50.96;95276.00;4990523;28;20026;-78
2021/11/14 01:49:58;;;;;;;9.40;8.50;;;;;;;15.53;50.80;95266.72;4991346;28;20097;-75
2021/11/14 01:52:27;;;;;;;10.85;9.50;;;;;;;15.52;51.12;95259.03;4987270;28;20026;-75
2021/11/14 01:54:52;;;;;;;14.73;12.73;;;;;;;15.49;51.43;95259.66;4971951;28;20041;-77
2021/11/14 01:57:18;;;;;;;12.88;11.50;;;;;;;15.60;51.24;95258.91;4972123;28;20035;-75
2021/11/14 01:59:44;;;;;;;9.57;8.75;;;;;;;15.60;51.13;95272.31;4971973;28;20027;-75
2021/11/14 02:02:11;;;;;;;9.25;8.35;;;;;;;15.56;51.29;95259.94;4986783;28;20026;-77
2021/11/14 02:04:38;;;;;;;8.52;7.72;;;;;;;15.58;51.22;95266.50;4978534;28;20027;-77
2021/11/14 02:07:03;;;;;;;9.13;8.13;;;;;;;15.57;51.32;95248.09;4991671;28;20026;-75
2021/11/14 02:09:29;;;;;;;8.52;7.65;;;;;;;15.65;50.87;95262.53;4991293;28;20038;-75
2021/11/14 02:11:54;;;;;;;9.25;8.02;;;;;;;15.65;51.20;95260.63;4991773;28;20030;-77
2021/11/14 02:14:20;;;;;;;9.23;8.07;;;;;;;15.60;51.15;95258.91;4991150;28;20369;-76
2021/11/14 02:16:45;;;;;;;10.75;9.65;;;;;;;15.55;51.25;95247.63;4990818;28;20081;-75
2021/11/14 02:19:11;;;;;;;10.50;9.40;;;;;;;15.57;51.23;95264.94;4987355;28;20028;-75
2021/11/14 02:21:37;;;;;;;9.77;8.88;;;;;;;15.60;51.63;95258.91;4991472;28;20049;-74
2021/11/14 02:24:04;;;;;;;9.55;8.65;;;;;;;15.58;51.49;95253.09;4989924;28;20073;-75
2021/11/14 02:26:30;;;;;;;11.77;10.68;;;;;;;15.66;51.24;95256.84;4991362;28;20449;-77
2021/11/14 02:28:56;;;;;;;8.52;7.78;;;;;;;15.63;50.92;95262.88;5006512;28;20370;-75
2021/11/14 02:31:24;;;;;;;10.27;9.27;;;;;;;15.57;50.98;95253.44;4991139;28;20033;-77
2021/11/14 02:33:50;;;;;;;9.07;8.27;;;;;;;15.63;51.07;95256.69;4980276;28;20640;-75
2021/11/14 02:36:16;;;;;;;10.10;9.20;;;;;;;15.58;51.25;95261.16;4989537;28;20053;-75
2021/11/14 02:38:42;;;;;;;14.43;12.30;;;;;;;15.58;51.14;95261.16;4991211;28;20392;-75
2021/11/14 02:41:10;;;;;;;10.07;8.60;;;;;;;15.55;51.11;95243.03;4991315;28;20384;-75
2021/11/14 02:43:43;;;;;;;8.75;7.95;;;;;;;15.57;51.26;95246.19;4991191;28;20049;-78
2021/11/14 02:46:09;;;;;;;10.82;9.65;;;;;;;15.63;51.62;95251.34;4991112;28;20113;-76
2021/11/14 02:48:35;;;;;;;9.07;8.27;;;;;;;15.60;51.59;95252.75;4991424;28;20077;-78
2021/11/14 02:51:04;;;;;;;10.38;9.38;;;;;;;15.63;51.16;95260.19;4991952;28;20026;-74
2021/11/14 02:53:29;;;;;;;10.10;9.15;;;;;;;15.68;51.21;95259.19;4994771;28;20030;-77
2021/11/14 02:55:57;;;;;;;11.45;10.30;;;;;;;15.60;51.48;95258.91;4994870;28;20037;-78
2021/11/14 02:58:23;;;;;;;10.15;9.15;;;;;;;15.54;51.48;95254.88;4995262;28;20026;-78
2021/11/14 03:01:12;;;;;;;8.73;7.93;;;;;;;15.65;51.52;95263.31;4994186;28;20022;-76
2021/11/14 03:03:39;;;;;;;9.73;8.82;;;;;;;15.65;51.29;95259.84;4990617;28;20105;-77
2021/11/14 03:06:06;;;;;;;15.40;11.18;;;;;;;15.58;51.43;95258.47;4991520;28;20029;-77
2021/11/14 03:08:33;;;;;;;12.90;8.68;;;;;;;15.53;51.43;95264.03;4994436;28;20026;-77
2021/11/14 03:10:59;;;;;;;8.82;8.02;;;;;;;15.53;51.62;95263.25;4994338;28;20568;-76
2021/11/14 03:13:25;;;;;;;8.85;8.00;;;;;;;15.54;51.33;95262.91;4994184;28;20030;-77
2021/11/14 03:15:55;;;;;;;8.63;7.72;;;;;;;15.53;51.35;95256.00;4994203;28;20542;-77
2021/11/14 03:18:20;;;;;;;8.90;8.00;;;;;;;15.51;51.66;95254.78;4979619;28;20023;-76
2021/11/14 03:20:49;;;;;;;7.80;7.10;;;;;;;15.50;51.10;95256.66;5007938;28;20073;-77
2021/11/14 03:23:15;;;;;;;8.82;8.02;;;;;;;15.46;51.77;95261.13;4994233;28;20483;-76
2021/11/14 03:25:42;;;;;;;8.43;7.60;;;;;;;15.50;51.40;95259.34;4994113;28;20034;-76
2021/11/14 03:28:07;;;;;;;8.90;8.07;;;;;;;15.59;51.48;95268.06;4994441;28;20026;-77
2021/11/14 03:30:34;;;;;;;9.80;8.65;;;;;;;15.59;51.43;95269.97;4994048;28;20033;-77
2021/11/14 03:33:02;;;;;;;8.43;7.72;;;;;;;15.53;50.85;95258.69;4989283;28;20093;-76
2021/11/14 03:35:56;;;;;;;10.65;9.65;;;;;;;15.56;50.88;95267.97;4990027;28;20064;-76
2021/11/14 03:38:28;;;;;;;10.45;9.35;;;;;;;15.56;51.27;95274.13;4993425;28;20065;-76
2021/11/14 03:40:54;;;;;;;9.05;8.07;;;;;;;15.53;51.09;95272.09;4992977;28;20522;-76
2021/11/14 03:43:19;;;;;;;10.32;9.43;;;;;;;15.50;51.59;95267.38;4992847;28;20022;-76
2021/11/14 03:45:45;;;;;;;8.80;8.00;;;;;;;15.51;51.15;95271.66;4993907;28;20029;-78
2021/11/14 03:48:11;;;;;;;8.20;7.50;;;;;;;15.54;51.28;95270.97;4993713;28;20029;-77
2021/11/14 03:50:37;;;;;;;8.82;8.05;;;;;;;15.56;51.20;95270.66;4980517;28;20022;-76
2021/11/14 03:53:03;;;;;;;8.10;7.30;;;;;;;15.59;51.16;95269.97;4993474;28;20052;-76
2021/11/14 03:55:29;;;;;;;7.40;6.80;;;;;;;15.52;51.45;95273.22;4993546;28;20084;-77
2021/11/14 03:57:55;;;;;;;8.02;7.32;;;;;;;15.56;51.17;95273.34;4993952;28;20022;-77
2021/11/14 04:00:25;;;;;;;7.43;6.82;;;;;;;15.48;51.53;95252.75;4993201;28;20031;-75
2021/11/14 04:02:54;;;;;;;11.23;8.77;;;;;;;15.48;51.22;95253.53;5002282;28;20038;-77
2021/11/14 04:05:20;;;;;;;6.63;6.03;;;;;;;15.50;51.01;95255.88;4978922;28;20031;-77
2021/11/14 04:07:46;;;;;;;7.22;6.53;;;;;;;15.60;50.99;95264.28;4987825;28;20050;-76
2021/11/14 04:10:12;;;;;;;6.78;6.18;;;;;;;14.07;54.52;95265.94;4993370;28;20042;-76
2021/11/14 04:12:38;;;;;;;7.38;6.57;;;;;;;12.99;58.20;95277.53;4993558;28;20029;-76
2021/11/14 04:15:07;;;;;;;7.30;6.63;;;;;;;13.48;57.52;95283.47;4993261;28;20072;-76
2021/11/14 04:17:33;;;;;;;8.07;7.30;;;;;;;13.24;58.21;95275.19;4992452;28;20065;-76
2021/11/14 04:19:58;;;;;;;7.03;6.38;;;;;;;13.14;58.52;95273.59;4985287;28;20539;-76
2021/11/14 04:22:24;;;;;;;7.20;6.60;;;;;;;13.72;57.40;95274.91;4993328;28;20109;-76
2021/11/14 04:24:49;;;;;;;7.38;6.60;;;;;;;14.36;55.68;95276.66;4992882;28;20544;-76
2021/11/14 04:27:14;;;;;;;8.63;6.93;;;;;;;14.73;54.93;95284.94;4993606;28;20045;-77
2021/11/14 04:29:40;;;;;;;8.95;7.45;;;;;;;14.94;54.26;95282.25;4993001;28;20023;-77
2021/11/14 04:32:06;;;;;;;8.02;7.32;;;;;;;15.06;53.43;95282.31;4987943;28;20118;-76
2021/11/14 04:34:31;;;;;;;6.50;5.90;;;;;;;15.19;53.39;95280.47;4984833;28;20030;-77
2021/11/14 04:36:56;;;;;;;7.80;7.10;;;;;;;15.24;52.77;95281.03;4992822;28;20030;-77
2021/11/14 04:39:22;;;;;;;8.70;7.45;;;;;;;15.30;52.77;95286.97;4992700;28;20054;-76
2021/11/14 04:41:47;;;;;;;7.63;7.00;;;;;;;15.28;52.54;95278.50;4993086;28;20018;-77
2021/11/14 04:44:13;;;;;;;7.82;7.03;;;;;;;15.29;52.31;95286.19;4993060;28;20034;-77
2021/11/14 04:46:38;;;;;;;7.32;6.65;;;;;;;15.28;52.25;95286.53;4992697;28;20126;-78
2021/11/14 04:49:03;;;;;;;8.43;7.57;;;;;;;15.29;52.27;95283.50;4987760;28;20029;-77
2021/11/14 04:51:29;;;;;;;8.18;7.38;;;;;;;15.28;52.50;95286.53;4984850;28;20076;-77
2021/11/14 04:53:54;;;;;;;9.20;7.25;;;;;;;15.35;52.07;95289.44;4992344;28;20029;-77
2021/11/14 04:56:20;;;;;;;7.57;6.28;;;;;;;15.41;52.24;95288.16;4992562;28;20034;-75
2021/11/14 04:58:46;;;;;;;8.32;7.53;;;;;;;15.41;52.12;95280.09;4991732;28;20022;-77
2021/11/14 05:01:11;;;;;;;8.68;7.88;;;;;;;15.41;52.31;95287.38;4990636;28;20026;-77
2021/11/14 05:03:37;;;;;;;9.25;8.35;;;;;;;15.49;51.82;95286.47;4997555;28;20049;-77
2021/11/14 05:06:02;;;;;;;9.27;8.32;;;;;;;15.44;51.91;95287.47;5004342;28;20034;-77
2021/11/14 05:08:28;;;;;;;8.63;7.82;;;;;;;15.43;51.87;95296.63;5007247;28;20034;-77
2021/11/14 05:10:54;;;;;;;9.45;8.55;;;;;;;15.30;51.97;95276.25;4992065;28;20026;-77
2021/11/14 05:13:20;;;;;;;9.95;8.95;;;;;;;15.36;52.39;95288.34;4992249;28;20598;-78
2021/11/14 05:15:46;;;;;;;9.38;8.48;;;;;;;15.35;52.20;95292.13;4992479;28;20169;-78
2021/11/14 05:18:12;;;;;;;9.82;8.82;;;;;;;15.33;52.40;95297.03;5002101;28;20121;-77
2021/11/14 05:20:38;;;;;;;8.77;7.93;;;;;;;15.30;52.12;95292.34;4991756;28;20101;-77
2021/11/14 05:23:04;;;;;;;8.35;7.55;;;;;;;15.37;51.90;95291.81;4991948;28;20026;-77
2021/11/14 05:25:30;;;;;;;9.70;8.80;;;;;;;15.34;52.56;95295.94;5007214;28;20026;-77
2021/11/14 05:27:56;;;;;;;10.48;8.32;;;;;;;15.40;52.14;95299.19;4992034;28;20018;-77
2021/11/14 05:30:21;;;;;;;10.68;9.70;;;;;;;15.37;52.41;95303.31;4991692;28;20093;-77
2021/11/14 05:32:46;;;;;;;11.00;9.95;;;;;;;15.38;52.42;95304.88;4987779;28;20034;-77
2021/11/14 05:35:12;;;;;;;10.80;9.80;;;;;;;15.19;52.42;95283.91;4975594;28;20018;-77
2021/11/14 05:37:38;;;;;;;16.15;12.23;;;;;;;15.33;52.64;95308.53;4972236;28;20588;-77
2021/11/14 05:40:06;;;;;;;16.27;13.00;;;;;;;15.31;53.33;95307.31;4972238;28;20447;-77
2021/11/14 05:42:31;;;;;;;16.77;12.75;;;;;;;15.25;53.31;95306.75;4972636;28;20050;-77
2021/11/14 05:44:58;;;;;;;28.85;15.00;;;;;;;15.24;53.30;95304.38;4971150;28;20669;-76
2021/11/14 05:47:24;;;;;;;16.58;13.02;;;;;;;15.24;53.65;95299.78;4987890;28;20029;-78
2021/11/14 05:49:49;;;;;;;22.13;15.02;;;;;;;15.33;53.50;95308.53;4983948;28;20041;-77
2021/11/14 05:52:14;;;;;;;33.38;19.20;;;;;;;15.23;53.30;95308.16;4990155;28;20458;-77
2021/11/14 05:54:40;;;;;;;28.75;17.50;;;;;;;15.26;53.35;95310.19;5003531;23;20042;-63
2021/11/14 05:57:05;;;;;;;42.58;22.00;;;;;;;15.20;53.16;95303.47;4988660;28;20394;-63
2021/11/14 06:02:06;;;;;;;33.85;19.15;;;;;;;15.21;53.42;95321.91;4989651;28;20040;-63
2021/11/14 06:06:56;;;;;;;35.63;18.65;;;;;;;15.26;53.40;95319.03;4990126;28;20097;-64
2021/11/14 06:09:22;;;;;;;27.95;16.77;;;;;;;15.27;53.38;95328.63;4989751;28;20022;-63
2021/11/14 06:11:47;;;;;;;31.20;19.65;;;;;;;15.20;53.10;95327.56;4989956;28;20495;-63
2021/11/14 06:14:13;;;;;;;32.20;18.90;;;;;;;15.17;53.13;95325.56;4989776;28;20027;-63
2021/11/14 06:16:38;;;;;;;37.30;21.33;;;;;;;15.21;53.10;95340.66;4989476;28;20141;-63
2021/11/14 06:19:04;;;;;;;38.55;20.83;;;;;;;14.53;53.28;95254.34;4989475;28;20050;-63
2021/11/14 06:21:29;;;;;;;38.78;22.38;;;;;;;15.08;53.30;95339.03;4989730;28;20479;-64
2021/11/14 06:23:55;;;;;;;43.83;24.15;;;;;;;15.03;53.62;95340.00;4988570;28;20068;-65
2021/11/14 06:26:23;;;;;;;58.20;26.33;;;;;;;15.00;54.25;95354.06;4991640;28;20054;-65
2021/11/14 06:28:49;;;;;;;64.47;27.77;;;;;;;14.87;54.65;95344.38;4994083;28;20034;-64
2021/11/14 06:31:14;;;;;;;62.22;28.65;;;;;;;14.92;54.84;95368.28;4993480;28;20096;-64
2021/11/14 06:33:40;;;;;;;71.70;30.42;;;;;;;14.89;55.11;95366.25;4993070;28;20395;-64
2021/11/14 06:36:05;;;;;;;69.47;29.75;;;;;;;14.89;55.77;95366.25;4993579;28;20400;-65
2021/11/14 06:38:31;;;;;;;69.28;29.75;;;;;;;14.98;55.28;95364.31;4976449;28;20022;-64
2021/11/14 06:40:57;;;;;;;62.97;28.75;;;;;;;15.01;55.25;95358.31;4993619;28;20056;-64
2021/11/14 06:43:22;;;;;;;57.80;28.38;;;;;;;14.95;55.90;95364.19;4993377;28;20029;-64
2021/11/14 06:45:48;;;;;;;62.17;30.25;;;;;;;15.00;55.54;95375.50;4993759;28;20034;-64
2021/11/14 06:48:13;;;;;;;56.35;28.00;;;;;;;14.95;55.76;95364.97;4993264;28;20033;-65
2021/11/14 06:50:39;;;;;;;56.40;27.35;;;;;;;14.95;55.08;95372.22;4992966;28;20034;-64
2021/11/14 06:53:04;;;;;;;59.60;29.73;;;;;;;15.02;54.45;95373.25;4993172;28;20560;-66
2021/11/14 06:55:30;;;;;;;48.45;26.63;;;;;;;14.80;54.69;95365.53;4993402;28;20030;-64
2021/11/14 06:57:56;;;;;;;51.63;26.88;;;;;;;14.80;54.68;95378.94;4993656;28;20166;-65
2021/11/14 07:00:23;;;;;;;49.17;27.80;;;;;;;14.82;54.56;95392.78;4993080;28;20117;-63
2021/11/14 07:02:49;;;;;;;64.90;33.00;;;;;;;14.90;54.47;95375.88;4992583;28;20468;-64
2021/11/14 07:05:15;;;;;;;54.72;29.88;;;;;;;14.63;54.19;95395.06;4991684;28;20030;-63
2021/11/14 07:07:41;;;;;;;50.33;30.63;;;;;;;14.51;54.69;95390.41;4993031;28;20022;-61
2021/11/14 07:10:09;;;;;;;56.05;30.92;;;;;;;14.67;54.53;95382.63;4993032;28;20030;-62
2021/11/14 07:12:36;;;;;;;53.97;31.65;;;;;;;14.77;54.37;95379.56;4993076;28;20049;-65
2021/11/14 07:15:03;;;;;;;55.60;30.73;;;;;;;14.98;54.69;95393.78;4992743;28;20085;-65
2021/11/14 07:17:28;;;;;;;57.67;31.83;;;;;;;15.12;53.93;95390.84;4992578;28;20054;-66
2021/11/14 07:19:54;;;;;;;52.25;28.85;;;;;;;15.22;53.77;95392.34;4992259;28;20061;-65
2021/11/14 07:22:20;;;;;;;51.35;31.00;;;;;;;15.25;54.01;95386.31;4992238;28;20535;-64
2021/11/14 07:24:46;;;;;;;55.03;31.13;;;;;;;15.36;53.60;95400.94;4992369;28;20026;-65
2021/11/14 07:27:12;;;;;;;61.88;32.85;;;;;;;15.28;53.67;95388.38;4992467;28;20034;-64
2021/11/14 07:29:37;;;;;;;65.80;35.03;;;;;;;15.21;53.81;95388.91;4992076;28;20551;-64
2021/11/14 07:32:03;;;;;;;61.47;34.55;;;;;;;14.90;53.76;95385.81;4991219;28;20027;-64
2021/11/14 07:34:29;;;;;;;59.85;35.10;;;;;;;14.84;54.13;95401.25;4991903;28;20539;-64
2021/11/14 07:36:54;;;;;;;51.60;31.67;;;;;;;14.62;54.53;95374.78;4992027;28;20487;-65
2021/11/14 07:39:20;;;;;;;49.50;32.03;;;;;;;14.50;54.27;95400.34;4985093;28;20026;-64
2021/11/14 07:41:45;;;;;;;44.80;29.92;;;;;;;14.31;54.68;95397.25;4992160;28;20030;-64
2021/11/14 07:44:11;;;;;;;47.60;31.85;;;;;;;14.25;54.61;95404.66;4991422;28;20030;-66
2021/11/14 07:46:36;;;;;;;41.67;28.95;;;;;;;14.05;55.08;95422.19;4991171;28;20030;-64
2021/11/14 07:49:03;;;;;;;48.47;30.70;;;;;;;13.94;55.82;95404.91;4990321;28;20116;-65
2021/11/14 07:51:29;;;;;;;40.80;28.73;;;;;;;14.35;55.08;95416.91;4988621;28;20073;-67
2021/11/14 07:53:55;;;;;;;43.97;28.80;;;;;;;14.36;56.43;95410.44;4991799;28;20421;-60
2021/11/14 07:56:20;;;;;;;36.83;24.40;;;;;;;14.52;55.10;95395.44;4992223;28;20369;-60
2021/11/14 07:58:46;;;;;;;39.85;26.27;;;;;;;14.67;53.95;95391.44;4974814;28;20026;-60
2021/11/14 08:01:11;;;;;;;38.65;24.63;;;;;;;14.84;53.14;95406.63;4991619;28;20033;-60
2021/11/14 08:03:37;;;;;;;36.40;24.63;;;;;;;14.92;52.97;95411.16;4991174;28;20396;-60
2021/11/14 08:06:03;;;;;;;30.30;23.63;;;;;;;14.97;52.85;95402.91;4990562;28;20030;-59
2021/11/14 08:08:29;;;;;;;42.13;29.73;;;;;;;14.94;52.56;95403.56;4991993;28;20443;-59
2021/11/14 08:10:55;;;;;;;38.92;28.58;;;;;;;14.89;52.30;95409.09;4991538;28;20023;-61
2021/11/14 08:13:21;;;;;;;38.90;27.08;;;;;;;14.72;53.00;95388.56;4974274;28;20037;-60
2021/11/14 08:15:47;;;;;;;26.02;21.27;;;;;;;14.65;53.44;95399.03;4991872;28;20030;-62
2021/11/14 08:18:13;;;;;;;29.45;23.92;;;;;;;14.92;53.32;95405.00;4973569;28;20037;-60
2021/11/14 08:20:38;;;;;;;33.80;23.58;;;;;;;14.87;52.77;95392.59;4990702;28;20028;-59
2021/11/14 08:23:05;;;;;;;39.15;27.23;;;;;;;15.36;50.88;95398.25;4991405;28;20058;-59
2021/11/14 08:25:31;;;;;;;32.78;25.90;;;;;;;15.06;51.30;95405.56;4991736;28;20459;-60
2021/11/14 08:27:57;;;;;;;30.58;23.85;;;;;;;15.27;51.07;95400.19;4991710;28;20436;-67
2021/11/14 08:30:24;;;;;;;32.70;24.35;;;;;;;15.11;51.34;95394.66;4990893;28;20054;-67
2021/11/14 08:32:50;;;;;;;28.98;23.20;;;;;;;15.40;50.96;95388.41;4991003;28;20031;-67
2021/11/14 08:35:18;;;;;;;31.00;23.52;;;;;;;15.13;51.23;95397.78;4991657;28;20033;-71
2021/11/14 08:37:46;;;;;;;30.88;23.77;;;;;;;15.21;50.70;95394.25;4991872;28;20416;-64
2021/11/14 08:40:13;;;;;;;27.88;21.77;;;;;;;14.87;51.08;95387.22;4991240;28;20050;-64
2021/11/14 08:42:39;;;;;;;31.83;22.35;;;;;;;13.76;54.04;95398.78;4991487;28;20033;-64
2021/11/14 08:45:06;;;;;;;28.58;24.15;;;;;;;14.35;53.05;95408.88;4991407;28;20610;-64
2021/11/14 08:47:32;;;;;;;34.28;24.40;;;;;;;14.62;52.25;95409.56;4990783;28;20087;-64
2021/11/14 08:49:58;;;;;;;30.00;24.45;;;;;;;14.85;51.56;95410.09;4990020;28;20023;-64
2021/11/14 08:52:23;;;;;;;27.98;23.63;;;;;;;14.83;51.05;95410.41;4990907;28;20388;-65
2021/11/14 08:54:50;;;;;;;28.52;22.42;;;;;;;15.29;50.90;95406.78;4990877;28;20054;-65
2021/11/14 08:57:18;;;;;;;30.85;23.83;;;;;;;14.48;51.78;95413.25;4991143;28;20034;-65
2021/11/14 08:59:45;;;;;;;30.25;23.08;;;;;;;14.94;50.91;95411.59;4990727;28;20114;-65
2021/11/14 09:02:12;;;;;;;28.92;23.25;;;;;;;14.62;51.07;95391.63;4990906;28;20101;-68
2021/11/14 09:04:37;;;;;;;30.38;23.73;;;;;;;14.62;50.98;95399.66;4977539;28;20502;-66
2021/11/14 09:07:03;;;;;;;29.02;23.15;;;;;;;15.23;50.13;95418.03;4990913;28;20022;-67
2021/11/14 09:09:29;;;;;;;34.35;24.48;;;;;;;15.31;49.60;95409.16;4990416;28;20040;-67
2021/11/14 09:11:55;;;;;;;31.10;23.58;;;;;;;15.17;49.44;95419.34;4990956;28;20022;-66
2021/11/14 09:14:21;;;;;;;26.67;22.23;;;;;;;15.27;49.21;95411.69;4990435;28;20483;-67
2021/11/14 09:16:50;;;;;;;29.35;22.85;;;;;;;15.33;48.55;95420.34;4990810;28;20113;-67
2021/11/14 09:19:17;;;;;;;31.02;23.48;;;;;;;15.27;49.14;95433.16;4994323;28;20030;-66
2021/11/14 09:21:43;;;;;;;28.83;23.60;;;;;;;14.93;49.43;95426.09;4990623;28;20127;-67
2021/11/14 09:24:10;;;;;;;34.30;24.17;;;;;;;14.95;49.45;95434.63;4990208;28;20488;-68
2021/11/14 09:26:37;;;;;;;28.05;23.48;;;;;;;14.36;50.33;95418.47;4990579;28;20023;-67
2021/11/14 09:29:03;;;;;;;31.05;23.55;;;;;;;14.26;50.59;95421.50;4990134;28;20030;-68
2021/11/14 09:31:29;;;;;;;27.92;23.10;;;;;;;14.24;51.34;95434.41;4990583;28;20133;-71
2021/11/14 09:33:57;;;;;;;33.80;24.00;;;;;;;13.53;51.36;95358.13;4989652;28;20015;-68
2021/11/14 09:36:23;;;;;;;31.25;22.38;;;;;;;14.23;51.24;95441.66;4990129;28;20116;-68
2021/11/14 09:38:48;;;;;;;30.52;23.23;;;;;;;13.98;51.95;95426.47;4990405;28;20193;-67
2021/11/14 09:41:14;;;;;;;36.50;24.08;;;;;;;14.37;51.31;95436.09;4990043;28;20077;-68
2021/11/14 09:43:40;;;;;;;29.33;23.65;;;;;;;14.66;50.76;95434.59;4990336;28;20030;-67
2021/11/14 09:46:06;;;;;;;28.70;22.42;;;;;;;14.75;50.57;95444.16;4990583;28;20033;-68
2021/11/14 09:48:33;;;;;;;26.00;21.40;;;;;;;14.42;50.42;95445.84;4989794;28;20038;-68
2021/11/14 09:50:58;;;;;;;24.33;20.70;;;;;;;14.69;49.85;95423.22;4989536;28;20030;-69
2021/11/14 09:53:33;;;;;;;26.02;21.38;;;;;;;14.80;49.78;95432.50;4989990;28;20034;-67
2021/11/14 09:56:01;;;;;;;23.63;20.95;;;;;;;14.76;49.74;95435.03;4990040;28;20049;-68
2021/11/14 09:58:27;;;;;;;26.95;21.92;;;;;;;15.15;49.45;95433.06;4990524;28;20034;-67
2021/11/14 10:00:53;;;;;;;29.15;21.80;;;;;;;14.94;49.19;95434.91;4989674;28;20034;-67
2021/11/14 10:03:21;;;;;;;27.77;21.10;;;;;;;14.93;50.09;95425.31;4989214;28;20070;-69
2021/11/14 10:05:48;;;;;;;25.50;20.58;;;;;;;14.52;50.13;95426.78;4989944;28;20029;-66
2021/11/14 10:08:15;;;;;;;24.05;18.88;;;;;;;15.09;48.69;95416.38;4990143;28;20028;-69
2021/11/14 10:10:51;;;;;;;24.65;19.85;;;;;;;15.15;48.64;95418.88;4989774;28;20560;-67
2021/11/14 10:13:29;;;;;;;23.77;20.25;;;;;;;14.89;49.69;95427.84;4989875;28;20027;-68
2021/11/14 10:16:07;;;;;;;23.85;18.52;;;;;;;14.10;50.86;95431.16;4989847;28;20023;-68
2021/11/14 10:18:33;;;;;;;21.10;18.90;;;;;;;14.24;50.94;95410.34;4989501;28;20080;-63
2021/11/14 10:21:01;;;;;;;22.92;18.33;;;;;;;14.10;51.31;95420.44;4989117;28;20018;-65
2021/11/14 10:23:28;;;;;;;23.15;17.92;;;;;;;13.95;51.73;95422.53;4989353;28;20644;-66
2021/11/14 10:25:55;;;;;;;23.05;17.92;;;;;;;13.59;52.98;95430.13;4990028;28;20049;-67
2021/11/14 10:28:27;;;;;;;20.35;16.58;;;;;;;13.13;54.58;95428.81;4989727;28;20026;-66
2021/11/14 10:30:52;;;;;;;17.75;15.82;;;;;;;13.18;54.25;95410.75;4989431;28;20387;-64
2021/11/14 10:33:19;;;;;;;18.38;15.60;;;;;;;13.45;54.12;95430.28;4989034;28;20137;-66
2021/11/14 10:35:48;;;;;;;17.73;15.68;;;;;;;13.87;53.43;95420.66;4989612;28;20026;-66
2021/11/14 10:38:17;;;;;;;15.77;12.98;;;;;;;13.53;53.89;95414.25;4990129;28;20026;-64
2021/11/14 10:40:49;;;;;;;11.93;10.80;;;;;;;13.70;53.57;95423.34;4972651;28;20030;-66
2021/11/14 10:43:17;;;;;;;10.18;9.18;;;;;;;12.99;54.91;95405.69;4990077;28;20030;-73
2021/11/14 10:45:43;;;;;;;8.48;7.68;;;;;;;11.91;57.66;95424.94;4991289;28;20026;-70
2021/11/14 10:48:12;;;;;;;9.20;8.10;;;;;;;12.31;57.37;95422.31;4972849;28;20030;-66
2021/11/14 10:50:44;;;;;;;9.75;8.68;;;;;;;12.30;57.50;95426.88;4993871;28;20026;-68
2021/11/14 10:53:15;;;;;;;9.40;8.40;;;;;;;12.62;57.17;95419.59;4988870;28;20027;-61
2021/11/14 10:55:45;;;;;;;10.75;9.68;;;;;;;12.64;56.77;95422.72;4990790;28;20030;-63
2021/11/14 10:58:12;;;;;;;13.13;9.98;;;;;;;12.67;56.65;95411.44;4990472;28;20022;-59
2021/11/14 11:00:41;;;;;;;15.63;11.43;;;;;;;13.35;55.18;95414.56;4989164;28;20026;-62
2021/11/14 11:03:08;;;;;;;15.05;10.50;;;;;;;12.86;55.29;95411.97;4988436;28;20034;-60
2021/11/14 11:05:33;;;;;;;14.27;12.20;;;;;;;13.07;55.14;95414.06;4988987;28;20443;-61
2021/11/14 11:08:01;;;;;;;13.57;11.10;;;;;;;13.09;55.24;95425.97;4971483;28;20105;-61
2021/11/14 11:10:35;;;;;;;13.50;12.20;;;;;;;13.00;55.18;95423.31;4988721;28;20098;-62
2021/11/14 11:13:03;;;;;;;15.02;12.82;;;;;;;12.81;55.77;95427.34;4973875;28;20030;-63
2021/11/14 11:15:41;;;;;;;15.43;12.32;;;;;;;13.38;54.79;95427.31;4992550;28;20050;-65
2021/11/14 11:18:13;;;;;;;16.10;13.52;;;;;;;13.30;54.26;95406.69;4994877;28;20033;-65
2021/11/14 11:20:40;;;;;;;15.02;13.02;;;;;;;12.95;54.58;95418.13;4975499;28;20526;-66
2021/11/14 11:23:07;;;;;;;15.52;13.68;;;;;;;13.61;53.55;95427.91;4991335;28;20038;-65